createdAt,value
2018-09-06T00:02:23.473Z,99447.41
2018-09-06T00:07:06.785Z,99445.45
2018-09-06T00:11:50.126Z,99444.42
2018-09-06T00:16:33.974Z,99435.10
2018-09-06T00:21:18.598Z,99426.66
2018-09-06T00:26:01.983Z,99426.04
2018-09-06T00:30:46.416Z,99422.19
2018-09-06T00:35:29.764Z,99418.05
2018-09-06T00:40:13.271Z,99409.98
2018-09-06T00:44:56.684Z,99404.53
2018-09-06T00:49:40.056Z,99402.88
2018-09-06T00:54:23.594Z,99408.08
2018-09-06T00:59:10.306Z,99407.26
2018-09-06T01:03:54.306Z,99409.92
2018-09-06T01:08:40.049Z,99412.45
2018-09-06T01:13:24.165Z,99414.13
2018-09-06T01:18:08.589Z,99412.25
2018-09-06T01:22:53.276Z,99412.12
2018-09-06T01:27:38.456Z,99412.59
2018-09-06T01:32:22.614Z,99420.37
2018-09-06T01:37:09.878Z,99418.66
2018-09-06T01:41:54.008Z,99406.59
2018-09-06T01:46:39.445Z,99411.44
2018-09-06T01:51:23.402Z,99415.77
2018-09-06T01:56:07.267Z,99408.77
2018-09-06T02:00:52.199Z,99410.37
2018-09-06T02:05:37.920Z,99400.91
2018-09-06T02:10:23.241Z,99405.15
2018-09-06T02:15:06.992Z,99401.42
2018-09-06T02:19:52.175Z,99398.52
2018-09-06T02:24:36.592Z,99402.73
2018-09-06T02:29:22.040Z,99403.95
2018-09-06T02:34:06.497Z,99413.98
2018-09-06T02:38:51.896Z,99421.97
2018-09-06T02:43:37.094Z,99422.07
2018-09-06T02:48:26.690Z,99428.72
2018-09-06T02:53:10.642Z,99431.61
2018-09-06T03:06:55.404Z,99420.19
2018-09-06T03:11:45.638Z,99426.70
2018-09-06T03:16:30.306Z,99426.82
2018-09-06T03:22:46.957Z,99419.72
2018-09-06T03:27:33.913Z,99415.64
2018-09-06T03:32:18.084Z,99420.13
2018-09-06T03:37:03.274Z,99423.16
2018-09-06T03:41:47.244Z,99428.47
2018-09-06T03:46:32.057Z,99426.42
2018-09-06T03:51:16.786Z,99420.19
2018-09-06T03:56:01.004Z,99421.70
2018-09-06T04:00:46.140Z,99429.47
2018-09-06T04:05:30.090Z,99431.13
2018-09-06T04:10:15.001Z,99428.97
2018-09-06T04:14:59.139Z,99434.90
2018-09-06T04:19:44.360Z,99431.64
2018-09-06T04:24:28.530Z,99436.11
2018-09-06T04:29:13.682Z,99445.98
2018-09-06T04:33:57.829Z,99453.36
2018-09-06T04:38:41.989Z,99449.90
2018-09-06T04:43:25.907Z,99451.95
2018-09-06T04:48:10.598Z,99450.77
2018-09-06T04:52:55.534Z,99442.48
2018-09-06T04:57:41.247Z,99439.82
2018-09-06T05:02:25.156Z,99446.10
2018-09-06T05:07:09.290Z,99447.08
2018-09-06T05:11:53.443Z,99445.77
2018-09-06T05:16:39.694Z,99448.80
2018-09-06T05:21:24.621Z,99463.09
2018-09-06T05:26:08.498Z,99462.62
2018-09-06T05:30:54.381Z,99464.16
2018-09-06T05:35:38.685Z,99469.16
2018-09-06T05:40:23.430Z,99461.90
2018-09-06T05:45:06.694Z,99474.45
2018-09-06T05:49:50.260Z,99472.12
2018-09-06T05:54:33.849Z,99475.13
2018-09-06T05:59:18.004Z,99476.20
2018-09-06T06:04:02.738Z,99480.66
2018-09-06T06:08:48.818Z,99490.94
2018-09-06T06:13:33.096Z,99474.73
2018-09-06T06:18:18.018Z,99488.25
2018-09-06T06:23:01.510Z,99488.20
2018-09-06T06:27:48.673Z,99480.06
2018-09-06T06:32:32.942Z,99491.67
2018-09-06T06:37:19.417Z,99502.34
2018-09-06T06:42:02.823Z,99504.00
2018-09-06T06:46:50.149Z,99493.59
2018-09-06T06:51:33.449Z,99492.27
2018-09-06T06:56:17.158Z,99503.50
2018-09-06T07:01:00.628Z,99489.32
2018-09-06T07:05:44.048Z,99477.96
2018-09-06T07:10:29.600Z,99474.53
2018-09-06T07:15:13.506Z,99478.23
2018-09-06T07:20:01.235Z,99468.20
2018-09-06T07:24:45.978Z,99483.78
2018-09-06T07:29:30.417Z,99472.30
2018-09-06T07:34:15.619Z,99459.10
2018-09-06T07:38:59.289Z,99444.80
2018-09-06T07:43:42.786Z,99447.73
2018-09-06T07:48:26.278Z,99444.30
2018-09-06T07:53:10.121Z,99435.78
2018-09-06T07:57:55.045Z,99437.30
2018-09-06T08:02:38.747Z,99440.68
2018-09-06T08:07:23.225Z,99433.03
2018-09-06T08:12:07.101Z,99432.52
2018-09-06T08:16:51.656Z,99439.39
2018-09-06T08:21:35.160Z,99438.42
2018-09-06T08:26:22.017Z,99435.09
2018-09-06T08:31:06.121Z,99425.88
2018-09-06T08:35:49.503Z,99435.52
2018-09-06T08:40:32.930Z,99443.37
2018-09-06T08:45:16.439Z,99448.64
2018-09-06T08:50:00.961Z,99446.53
2018-09-06T08:54:44.413Z,99441.39
2018-09-06T08:59:28.848Z,99437.77
2018-09-06T09:04:12.298Z,99441.94
2018-09-06T09:08:56.001Z,99442.29
2018-09-06T09:34:17.869Z,99418.86
2018-09-06T09:39:01.543Z,99424.64
2018-09-06T09:43:45.033Z,99402.70
2018-09-06T09:48:28.740Z,99411.34
2018-09-06T09:53:12.370Z,99409.20
2018-09-06T09:57:59.056Z,99425.14
2018-09-06T10:02:47.857Z,99447.20
2018-09-06T10:07:36.709Z,99456.62
2018-09-06T10:12:20.243Z,99454.89
2018-09-06T10:17:04.997Z,99457.38
2018-09-06T10:21:49.683Z,99464.95
2018-09-06T10:26:34.817Z,99447.26
2018-09-06T10:31:20.895Z,99442.52
2018-09-06T10:36:06.351Z,99444.00
2018-09-06T10:40:50.528Z,99441.23
2018-09-06T10:45:36.174Z,99446.89
2018-09-06T10:50:22.358Z,99444.66
2018-09-06T10:55:06.337Z,99434.16
2018-09-06T10:59:51.951Z,99425.88
2018-09-06T11:04:37.755Z,99417.79
2018-09-06T11:09:26.502Z,99407.44
2018-09-06T11:19:02.857Z,99413.86
2018-09-06T11:28:47.220Z,99412.45
2018-09-06T11:33:36.407Z,99405.77
2018-09-06T11:43:15.863Z,99390.64
2018-09-06T11:48:05.031Z,99386.24
2018-09-06T11:52:50.166Z,99382.34
2018-09-06T11:57:45.182Z,99377.04
2018-09-06T12:02:31.826Z,99381.16
2018-09-06T12:07:19.912Z,99379.39
2018-09-06T12:12:06.494Z,99390.63
2018-09-06T12:16:55.997Z,99390.55
2018-09-06T12:21:48.907Z,99397.61
2018-09-06T12:26:34.965Z,99415.28
2018-09-06T12:31:22.016Z,99413.63
2018-09-06T12:36:14.813Z,99405.41
2018-09-06T12:41:10.241Z,99419.31
2018-09-06T12:45:57.835Z,99425.48
2018-09-06T12:50:43.925Z,99418.30
2018-09-06T12:55:34.345Z,99413.86
2018-09-06T13:00:20.393Z,99419.00
2018-09-06T13:05:09.607Z,99414.48
2018-09-06T13:09:55.441Z,99418.80
2018-09-06T13:14:45.361Z,99416.86
2018-09-06T13:19:32.195Z,99417.34
2018-09-06T13:24:18.442Z,99423.64
2018-09-06T13:29:04.471Z,99417.55
2018-09-06T13:33:55.241Z,99415.75
2018-09-06T13:38:44.381Z,99414.13
2018-09-06T13:43:30.420Z,99420.55
2018-09-06T13:48:17.250Z,99415.63
2018-09-06T13:53:03.302Z,99414.17
2018-09-06T13:57:50.378Z,99410.47
2018-09-06T14:02:36.209Z,99400.84
2018-09-06T14:07:24.405Z,99396.30
2018-09-06T14:12:10.518Z,99397.67
2018-09-06T14:16:56.672Z,99389.74
2018-09-06T14:21:43.564Z,99383.98
2018-09-06T14:26:33.430Z,99386.11
2018-09-06T14:31:18.147Z,99397.59
2018-09-06T14:36:04.177Z,99398.30
2018-09-06T14:40:50.434Z,99418.09
2018-09-06T14:45:38.689Z,99434.98
2018-09-06T14:50:24.613Z,99443.19
2018-09-06T14:55:14.214Z,99438.45
2018-09-06T14:59:58.063Z,99431.15
2018-09-06T15:04:45.266Z,99434.78
2018-09-06T15:09:29.652Z,99418.92
2018-09-06T15:14:20.660Z,99433.33
2018-09-06T15:19:04.263Z,99424.41
2018-09-06T15:23:50.492Z,99422.25
2018-09-06T15:28:36.969Z,99418.56
2018-09-06T15:33:22.214Z,99410.72
2018-09-06T15:38:06.724Z,99408.05
2018-09-06T15:42:55.023Z,99411.80
2018-09-06T15:47:40.055Z,99409.42
2018-09-06T15:52:25.193Z,99420.84
2018-09-06T15:57:09.117Z,99419.47
2018-09-06T16:01:55.350Z,99430.20
2018-09-06T16:06:40.033Z,99440.41
2018-09-06T16:11:25.892Z,99435.69
2018-09-06T16:16:10.811Z,99443.97
2018-09-06T16:20:56.686Z,99439.16
2018-09-06T16:25:47.134Z,99436.04
2018-09-06T16:30:33.745Z,99432.76
2018-09-06T16:35:23.741Z,99441.36
2018-09-06T16:40:09.957Z,99441.29
2018-09-06T16:44:56.854Z,99444.05
2018-09-06T16:49:49.018Z,99450.59
2018-09-06T16:54:36.430Z,99449.09
2018-09-06T16:59:20.961Z,99457.45
2018-09-06T17:04:06.427Z,99452.96
2018-09-06T17:08:50.994Z,99453.67
2018-09-06T17:13:43.349Z,99454.75
2018-09-06T17:18:29.959Z,99455.70
2018-09-06T17:23:13.578Z,99460.95
2018-09-06T17:27:57.332Z,99465.24
2018-09-06T17:37:57.130Z,99471.41
2018-09-06T17:42:41.197Z,99472.55
2018-09-06T17:47:24.853Z,99475.41
2018-09-06T17:52:29.139Z,99481.27
2018-09-06T17:57:17.804Z,99484.61
2018-09-06T18:02:01.397Z,99483.02
2018-09-06T18:06:44.981Z,99476.31
2018-09-06T18:11:29.555Z,99484.50
2018-09-06T18:16:13.127Z,99482.30
2018-09-06T18:20:56.646Z,99486.69
2018-09-06T18:25:41.858Z,99472.28
2018-09-06T18:30:31.265Z,99469.47
2018-09-06T18:35:17.986Z,99460.87
2018-09-06T18:40:01.655Z,99458.52
2018-09-06T18:44:46.505Z,99457.91
2018-09-06T18:49:30.002Z,99455.58
2018-09-06T18:54:16.394Z,99449.05
2018-09-06T18:59:00.200Z,99448.32
2018-09-06T19:03:43.826Z,99459.44
2018-09-06T19:08:27.256Z,99466.36
2018-09-06T19:13:10.756Z,99466.80
2018-09-06T19:17:54.771Z,99469.64
2018-09-06T19:22:38.109Z,99480.59
2018-09-06T19:27:22.145Z,99485.32
2018-09-06T19:32:06.270Z,99477.38
2018-09-06T19:36:50.649Z,99481.66
2018-09-06T19:41:34.154Z,99487.09
2018-09-06T19:46:17.728Z,99480.86
2018-09-06T19:51:01.404Z,99486.20
2018-09-06T19:55:45.218Z,99477.68
2018-09-06T20:00:28.642Z,99489.67
2018-09-06T20:05:16.767Z,99488.15
2018-09-06T20:10:00.299Z,99484.17
2018-09-06T20:14:44.767Z,99480.41
2018-09-06T20:19:28.200Z,99481.00
2018-09-06T20:24:12.639Z,99487.63
2018-09-06T20:28:57.110Z,99483.42
2018-09-06T20:33:40.723Z,99484.63
2018-09-06T20:38:24.132Z,99482.09
2018-09-06T20:43:07.586Z,99485.58
2018-09-06T20:47:51.123Z,99486.56
2018-09-06T20:52:35.053Z,99482.05
2018-09-06T20:57:18.670Z,99469.58
2018-09-06T21:02:07.441Z,99470.19
2018-09-06T21:06:51.018Z,99476.20
2018-09-06T21:11:34.455Z,99475.27
2018-09-06T21:16:18.078Z,99474.31
2018-09-06T21:21:01.463Z,99475.80
2018-09-06T21:25:48.687Z,99470.05
2018-09-06T21:30:32.030Z,99473.72
2018-09-06T21:35:16.510Z,99472.46
2018-09-06T21:40:00.020Z,99468.13
2018-09-06T21:44:46.490Z,99469.46
2018-09-06T21:49:29.937Z,99470.67
2018-09-06T21:54:16.598Z,99465.09
2018-09-06T21:58:59.917Z,99470.80
2018-09-06T22:03:48.807Z,99472.42
2018-09-06T22:08:32.257Z,99474.83
2018-09-06T22:13:16.752Z,99477.27
2018-09-06T22:18:00.249Z,99475.69
2018-09-06T22:22:43.526Z,99464.65
2018-09-06T22:27:26.999Z,99464.77
2018-09-06T22:32:10.243Z,99462.61
2018-09-06T22:36:53.701Z,99470.45
2018-09-06T22:41:36.989Z,99467.31
2018-09-06T22:46:20.465Z,99471.55
2018-09-06T22:51:03.942Z,99470.59
2018-09-06T22:55:47.622Z,99464.64
2018-09-06T23:00:31.895Z,99459.71
2018-09-06T23:05:18.140Z,99468.90
2018-09-06T23:10:10.890Z,99460.06
2018-09-06T23:15:05.408Z,99453.39
2018-09-06T23:19:57.434Z,99448.67
2018-09-06T23:24:50.691Z,99456.91
2018-09-06T23:29:37.878Z,99458.59
2018-09-06T23:34:25.670Z,99451.22
2018-09-06T23:39:16.490Z,99449.54
2018-09-06T23:44:08.321Z,99442.16
2018-09-06T23:48:54.041Z,99445.56
2018-09-06T23:53:47.853Z,99441.66
2018-09-06T23:58:42.060Z,99437.81
